Time;durP1;ratioP1;P1;durP2;ratioP2;P2;SDS_P1;SDS_P2;PMS_P1;PMS_P2;Temp;Humidity;BMP_temperature;BMP_pressure;BME280_temperature;BME280_humidity;BME280_pressure;Samples;Min_cycle;Max_cycle;Signal;HPM_P1;HPM_P2
2021/07/13 00:00:33;;;;;;;17.48;11.30;;;;;;;21.68;73.20;100686.94;1827457;78;21577;-65
2021/07/13 00:03:04;;;;;;;19.85;11.10;;;;;;;21.66;73.52;100683.55;1827505;78;21118;-65
2021/07/13 00:05:34;;;;;;;22.32;13.55;;;;;;;21.65;73.55;100681.84;1827632;78;21031;-65
2021/07/13 00:08:04;;;;;;;20.52;12.25;;;;;;;21.64;73.65;100683.67;1827597;78;21556;-65
2021/07/13 00:10:35;;;;;;;22.73;10.95;;;;;;;21.64;73.65;100688.20;1827456;78;21055;-65
2021/07/13 00:13:04;;;;;;;23.22;11.60;;;;;;;21.62;73.82;100690.16;1827522;78;21087;-65
2021/07/13 00:15:36;;;;;;;24.02;13.88;;;;;;;21.56;73.90;100677.65;1827538;78;21122;-65
2021/07/13 00:18:06;;;;;;;23.75;16.32;;;;;;;21.52;74.14;100678.03;1827490;78;21059;-64
2021/07/13 00:20:35;;;;;;;21.65;13.18;;;;;;;21.49;74.17;100679.66;1827653;78;21149;-64
2021/07/13 00:23:04;;;;;;;17.42;10.90;;;;;;;21.46;74.31;100675.89;1827475;78;21055;-66
2021/07/13 00:25:34;;;;;;;22.58;12.73;;;;;;;21.42;74.54;100663.22;1829874;78;21629;-65
2021/07/13 00:28:04;;;;;;;16.87;11.12;;;;;;;21.38;74.84;100664.47;1830250;78;21047;-64
2021/07/13 00:30:33;;;;;;;21.97;11.73;;;;;;;21.37;74.86;100666.78;1830231;78;21051;-65
2021/07/13 00:33:02;;;;;;;21.25;11.43;;;;;;;21.36;74.93;100665.09;1830239;78;21031;-64
2021/07/13 00:35:31;;;;;;;20.90;11.60;;;;;;;21.35;75.02;100665.56;1830169;78;21071;-64
2021/07/13 00:37:59;;;;;;;19.27;11.43;;;;;;;21.34;75.23;100665.69;1830171;78;21111;-64
2021/07/13 00:40:28;;;;;;;18.42;10.70;;;;;;;21.31;75.56;100665.97;1830157;78;21047;-64
2021/07/13 00:42:57;;;;;;;17.77;11.38;;;;;;;21.27;75.54;100660.03;1830243;78;21526;-64
2021/07/13 00:45:26;;;;;;;20.55;11.28;;;;;;;21.30;75.45;100670.48;1830187;78;21063;-64
2021/07/13 00:47:55;;;;;;;21.00;11.18;;;;;;;21.31;75.37;100667.31;1830135;78;21137;-64
2021/07/13 00:50:26;;;;;;;19.75;12.20;;;;;;;21.32;75.34;100668.99;1830052;78;21133;-65
2021/07/13 00:53:03;;;;;;;15.10;10.08;;;;;;;21.32;75.33;100664.52;1830189;78;21044;-65
2021/07/13 00:55:27;;;;;;;21.23;11.97;;;;;;;21.30;75.39;100666.47;1829880;76;21032;-64
2021/07/13 00:57:57;;;;;;;17.50;10.80;;;;;;;21.28;75.60;100671.58;1830120;78;21043;-65
2021/07/13 01:00:26;;;;;;;22.60;11.40;;;;;;;21.24;75.84;100671.48;1830150;78;21600;-65
2021/07/13 01:02:58;;;;;;;19.32;10.82;;;;;;;21.19;76.05;100668.72;1841671;77;21202;-65
2021/07/13 01:05:29;;;;;;;16.30;10.03;;;;;;;21.15;76.19;100673.95;1841798;78;21125;-64
2021/07/13 01:08:26;;;;;;;20.92;11.70;;;;;;;21.14;76.17;100670.94;1839911;78;21075;-64
2021/07/13 01:11:04;;;;;;;20.37;10.50;;;;;;;21.10;76.54;100671.31;1830047;78;21055;-64
2021/07/13 01:13:45;;;;;;;17.67;10.53;;;;;;;21.07;76.39;100668.41;1831511;77;21035;-64
2021/07/13 01:16:35;;;;;;;19.50;11.35;;;;;;;21.06;76.41;100675.23;1782042;78;21067;-64
2021/07/13 01:19:15;;;;;;;17.12;10.90;;;;;;;21.03;76.81;100673.67;1830114;76;21494;-64
2021/07/13 01:21:56;;;;;;;22.82;12.23;;;;;;;21.03;76.85;100675.51;1830368;78;21538;-64
2021/07/13 01:25:03;;;;;;;20.82;10.98;;;;;;;21.03;76.86;100678.19;1829619;78;21087;-64
2021/07/13 01:27:46;;;;;;;21.68;11.73;;;;;;;21.05;77.00;100680.24;1827527;78;21047;-64
2021/07/13 01:30:18;;;;;;;21.48;11.70;;;;;;;21.08;76.89;100684.84;1869025;77;21144;-64
2021/07/13 01:32:52;;;;;;;18.37;11.40;;;;;;;21.09;76.85;100686.53;1828654;76;21542;-64
2021/07/13 01:35:29;;;;;;;23.50;12.63;;;;;;;21.12;76.83;100676.08;1832026;77;21146;-64
2021/07/13 01:38:00;;;;;;;17.70;12.65;;;;;;;21.14;76.76;100681.64;1827875;77;21035;-64
2021/07/13 01:40:30;;;;;;;20.10;11.68;;;;;;;21.17;76.77;100678.72;1827439;78;21098;-65
2021/07/13 01:43:00;;;;;;;19.92;11.73;;;;;;;21.20;76.61;100681.11;1827560;78;21177;-65
2021/07/13 01:45:30;;;;;;;23.02;11.83;;;;;;;21.23;76.50;100688.52;1827604;78;21471;-64
2021/07/13 01:48:01;;;;;;;19.67;11.35;;;;;;;21.23;76.50;100691.20;1827505;78;21145;-65
2021/07/13 01:50:31;;;;;;;19.82;11.48;;;;;;;21.23;76.39;100701.91;1827488;78;21114;-64
2021/07/13 01:53:02;;;;;;;20.48;10.95;;;;;;;21.21;76.51;100701.56;1827394;78;21169;-65
2021/07/13 01:55:33;;;;;;;20.37;11.40;;;;;;;21.21;76.44;100709.59;1827537;78;21072;-65
2021/07/13 01:58:03;;;;;;;21.12;11.60;;;;;;;21.21;76.31;100709.59;1827543;78;21145;-65
2021/07/13 02:00:33;;;;;;;19.60;10.70;;;;;;;21.23;76.20;100711.28;1827467;78;21564;-65
2021/07/13 02:03:03;;;;;;;23.25;11.45;;;;;;;21.24;76.14;100712.50;1827524;78;21467;-65
2021/07/13 02:05:34;;;;;;;21.73;11.18;;;;;;;21.26;76.32;100711.87;1827556;78;21204;-65
2021/07/13 02:08:05;;;;;;;17.90;10.58;;;;;;;21.27;76.32;100706.05;1827597;78;21060;-65
2021/07/13 02:10:35;;;;;;;21.37;11.08;;;;;;;21.29;76.29;100700.91;1827543;78;21059;-65
2021/07/13 02:13:06;;;;;;;19.98;11.30;;;;;;;21.32;76.24;100703.80;1827454;78;21483;-65
2021/07/13 02:15:36;;;;;;;19.70;11.03;;;;;;;21.33;76.24;100710.38;1827524;78;21149;-65
2021/07/13 02:18:05;;;;;;;20.15;11.70;;;;;;;21.36;76.15;100710.63;1827603;78;21059;-65
2021/07/13 02:20:35;;;;;;;18.05;11.57;;;;;;;21.38;76.18;100711.34;1827484;78;21507;-65
2021/07/13 02:23:06;;;;;;;18.70;10.82;;;;;;;21.40;76.39;100712.05;1827530;78;21510;-64
2021/07/13 02:25:35;;;;;;;16.15;10.55;;;;;;;21.41;76.35;100715.08;1828496;78;21145;-65
2021/07/13 02:28:18;;;;;;;21.95;11.18;;;;;;;21.43;76.29;100714.45;1830176;78;21558;-65
2021/07/13 02:30:50;;;;;;;18.55;9.95;;;;;;;21.45;76.08;100713.89;1830187;78;21055;-65
2021/07/13 02:33:28;;;;;;;18.55;10.72;;;;;;;21.47;76.10;100710.59;1830273;78;21048;-64
2021/07/13 02:36:00;;;;;;;24.47;10.88;;;;;;;21.51;76.10;100712.52;1830246;78;21506;-64
2021/07/13 02:38:29;;;;;;;26.20;13.10;;;;;;;21.57;75.99;100715.50;1830192;78;21144;-64
2021/07/13 02:41:01;;;;;;;23.70;11.70;;;;;;;21.65;75.86;100722.03;1830229;78;21544;-65
2021/07/13 02:43:30;;;;;;;16.65;11.00;;;;;;;21.69;75.71;100723.45;1830284;78;21129;-64
2021/07/13 02:46:00;;;;;;;19.00;10.25;;;;;;;21.69;75.69;100712.27;1830314;77;21125;-64
2021/07/13 02:48:30;;;;;;;17.23;9.50;;;;;;;21.69;75.71;100715.42;1830201;78;21035;-64
2021/07/13 02:51:00;;;;;;;21.05;10.38;;;;;;;21.71;75.70;100720.18;1830275;78;21051;-64
2021/07/13 02:53:30;;;;;;;19.17;9.68;;;;;;;21.69;75.71;100723.45;1830090;78;21169;-64
2021/07/13 02:56:00;;;;;;;20.85;9.90;;;;;;;21.70;75.59;100731.37;1830177;78;21518;-64
2021/07/13 02:58:30;;;;;;;19.60;9.60;;;;;;;21.74;75.53;100734.63;1830284;78;21095;-64
2021/07/13 03:01:00;;;;;;;19.55;9.90;;;;;;;21.77;75.48;100746.44;1830289;78;21036;-65
2021/07/13 03:03:28;;;;;;;16.05;9.55;;;;;;;21.79;75.47;100755.19;1830175;78;21070;-64
2021/07/13 03:05:58;;;;;;;17.77;9.08;;;;;;;21.83;75.51;100755.28;1830109;77;21075;-65
2021/07/13 03:08:27;;;;;;;14.80;8.85;;;;;;;21.90;75.54;100750.25;1830165;78;21505;-64
2021/07/13 03:10:58;;;;;;;17.00;8.90;;;;;;;21.94;75.51;100749.83;1830268;78;21478;-65
2021/07/13 03:13:27;;;;;;;19.75;9.70;;;;;;;22.00;75.44;100746.27;1830159;78;21055;-64
2021/07/13 03:15:56;;;;;;;17.57;9.38;;;;;;;22.05;75.35;100740.02;1830166;78;21051;-64
2021/07/13 03:18:25;;;;;;;16.17;11.30;;;;;;;22.11;75.30;100744.83;1830188;78;21059;-64
2021/07/13 03:20:57;;;;;;;26.48;14.83;;;;;;;22.15;75.25;100738.21;1830149;78;21568;-64
2021/07/13 03:23:27;;;;;;;15.55;11.40;;;;;;;22.22;75.18;100746.58;1830294;78;21055;-64
2021/07/13 03:25:57;;;;;;;22.25;10.98;;;;;;;22.27;75.02;100741.19;1830097;78;21608;-65
2021/07/13 03:28:27;;;;;;;20.12;10.53;;;;;;;22.32;74.94;100745.66;1830155;78;21035;-64
2021/07/13 03:30:56;;;;;;;23.60;10.78;;;;;;;22.36;74.82;100744.40;1830037;78;21138;-64
2021/07/13 03:33:26;;;;;;;18.20;10.18;;;;;;;22.41;74.72;100749.37;1830156;78;21498;-64
2021/07/13 03:35:56;;;;;;;20.60;10.58;;;;;;;22.44;74.58;100737.50;1830289;78;21079;-63
2021/07/13 03:38:26;;;;;;;17.35;9.20;;;;;;;22.51;74.42;100741.34;1830243;78;21466;-64
2021/07/13 03:40:54;;;;;;;15.32;9.90;;;;;;;22.55;74.23;100737.39;1830186;78;21027;-64
2021/07/13 03:43:27;;;;;;;19.23;10.43;;;;;;;22.56;74.13;100739.10;1830146;78;21051;-64
2021/07/13 03:45:58;;;;;;;22.17;9.87;;;;;;;22.58;74.12;100739.81;1842239;77;21051;-64
2021/07/13 03:48:28;;;;;;;22.80;10.32;;;;;;;22.62;74.03;100738.54;1841840;78;21047;-65
2021/07/13 03:50:57;;;;;;;18.55;10.98;;;;;;;22.65;74.08;100739.61;1839976;78;21114;-65
2021/07/13 03:53:26;;;;;;;21.65;11.80;;;;;;;22.69;74.14;100737.00;1830093;78;21044;-65
2021/07/13 03:55:55;;;;;;;25.08;12.75;;;;;;;22.75;74.21;100739.63;1830006;78;21071;-66
2021/07/13 03:58:23;;;;;;;23.40;13.40;;;;;;;22.83;74.19;100744.28;1830136;78;21059;-66
2021/07/13 04:00:52;;;;;;;26.05;12.25;;;;;;;22.93;74.15;100753.22;1830128;78;21079;-65
2021/07/13 04:03:21;;;;;;;24.72;12.63;;;;;;;23.03;74.21;100755.90;1830117;78;21212;-65
2021/07/13 04:05:50;;;;;;;24.47;11.20;;;;;;;23.18;74.16;100753.67;1830143;78;21048;-64
2021/07/13 04:08:18;;;;;;;25.85;12.65;;;;;;;23.46;74.08;100754.16;1830032;78;21028;-64
2021/07/13 04:10:47;;;;;;;25.50;14.07;;;;;;;23.71;73.80;100752.68;1830132;78;21099;-64
2021/07/13 04:13:16;;;;;;;26.85;13.58;;;;;;;23.87;73.40;100762.87;1830129;78;21062;-64
2021/07/13 04:15:44;;;;;;;27.45;13.13;;;;;;;24.10;73.03;100762.51;1830137;78;21129;-64
2021/07/13 04:18:13;;;;;;;31.33;12.23;;;;;;;24.45;72.58;100764.98;1830138;78;21101;-64
2021/07/13 04:20:42;;;;;;;22.05;10.78;;;;;;;24.81;71.82;100768.63;1828713;78;21251;-64
2021/07/13 04:23:11;;;;;;;20.60;10.10;;;;;;;25.17;71.07;100773.17;1829191;78;21160;-64
2021/07/13 04:25:39;;;;;;;20.57;9.58;;;;;;;25.55;70.31;100769.33;1829216;78;21066;-64
2021/07/13 04:28:08;;;;;;;19.45;9.35;;;;;;;25.89;69.34;100767.19;1827270;78;21194;-64
2021/07/13 04:30:37;;;;;;;16.48;8.25;;;;;;;26.15;68.62;100771.27;1826679;78;21071;-64
2021/07/13 04:33:06;;;;;;;20.35;9.40;;;;;;;26.16;68.03;100772.94;1826251;78;21562;-64
2021/07/13 04:35:34;;;;;;;16.30;8.28;;;;;;;26.13;67.52;100774.60;1826859;78;21149;-64
2021/07/13 04:38:03;;;;;;;19.92;8.80;;;;;;;26.13;67.29;100773.25;1827525;78;21572;-64
2021/07/13 04:40:33;;;;;;;35.00;9.93;;;;;;;26.05;66.99;100781.83;1827540;78;21080;-64
2021/07/13 04:43:01;;;;;;;30.82;10.30;;;;;;;25.98;67.18;100781.61;1827615;78;21554;-64
2021/07/13 04:45:30;;;;;;;24.02;10.08;;;;;;;25.98;67.21;100784.31;1827502;78;21055;-64
2021/07/13 04:47:59;;;;;;;20.55;9.10;;;;;;;26.22;67.30;100786.80;1827455;78;21059;-64
2021/07/13 04:50:28;;;;;;;16.85;7.97;;;;;;;26.67;67.23;100791.06;1827505;78;21127;-64
2021/07/13 04:52:56;;;;;;;17.17;8.18;;;;;;;27.08;66.30;100796.58;1827512;78;21075;-64
2021/07/13 04:55:25;;;;;;;14.20;7.95;;;;;;;27.25;65.55;100795.58;1827484;78;21028;-64
2021/07/13 04:57:54;;;;;;;21.65;8.45;;;;;;;27.23;65.13;100801.66;1827536;78;21451;-64
2021/07/13 05:00:23;;;;;;;12.70;7.53;;;;;;;27.25;64.65;100809.61;1827491;78;21063;-65
2021/07/13 05:02:51;;;;;;;21.40;8.48;;;;;;;27.02;64.20;100814.31;1827474;78;21059;-64
2021/07/13 05:05:20;;;;;;;17.85;8.60;;;;;;;26.73;64.37;100806.63;1827591;78;21143;-64
2021/07/13 05:07:50;;;;;;;12.30;7.28;;;;;;;26.52;64.53;100818.67;1827490;78;21196;-64
2021/07/13 05:10:20;;;;;;;13.08;7.55;;;;;;;26.34;64.28;100815.22;1827751;78;21056;-64
2021/07/13 05:12:49;;;;;;;15.45;7.70;;;;;;;26.18;64.32;100814.10;1827625;78;21553;-64
2021/07/13 05:15:18;;;;;;;11.03;7.85;;;;;;;26.24;64.45;100817.17;1827506;78;21048;-64
2021/07/13 05:17:47;;;;;;;11.73;6.60;;;;;;;26.69;64.50;100814.69;1827759;78;21552;-64
2021/07/13 05:20:16;;;;;;;12.78;7.60;;;;;;;27.25;64.21;100818.55;1827506;78;21071;-64
2021/07/13 05:22:45;;;;;;;12.45;7.33;;;;;;;27.77;63.19;100812.00;1827603;78;21055;-64
2021/07/13 05:25:15;;;;;;;11.40;7.05;;;;;;;28.34;62.36;100813.77;1827515;78;21071;-64
2021/07/13 05:27:44;;;;;;;15.03;7.53;;;;;;;28.85;61.24;100816.95;1827347;78;21149;-64
2021/07/13 05:30:14;;;;;;;11.00;7.15;;;;;;;29.21;59.30;100812.34;1827477;78;21200;-64
2021/07/13 05:32:42;;;;;;;12.98;7.25;;;;;;;29.56;58.37;100810.03;1827612;78;21094;-64
2021/07/13 05:35:11;;;;;;;10.53;7.00;;;;;;;29.95;57.72;100810.37;1827598;78;21043;-65
2021/07/13 05:37:40;;;;;;;17.20;7.37;;;;;;;30.05;56.41;100817.44;1827514;78;21498;-64
2021/07/13 05:40:09;;;;;;;15.75;7.08;;;;;;;30.13;55.86;100826.31;1827383;78;21051;-64
2021/07/13 05:42:38;;;;;;;17.85;7.12;;;;;;;30.28;55.28;100829.03;1827622;78;21059;-64
2021/07/13 05:45:11;;;;;;;17.67;7.50;;;;;;;30.48;55.01;100831.22;1827484;78;21079;-64
2021/07/13 05:47:40;;;;;;;17.30;8.23;;;;;;;30.68;54.69;100821.97;1827627;78;21048;-64
2021/07/13 05:50:10;;;;;;;15.55;7.60;;;;;;;30.88;54.37;100826.30;1827489;78;21494;-64
2021/07/13 05:52:39;;;;;;;13.18;7.15;;;;;;;31.15;53.39;100826.08;1827473;78;21051;-64
2021/07/13 05:55:09;;;;;;;11.95;7.45;;;;;;;31.32;52.83;100819.36;1827448;78;21063;-64
2021/07/13 05:57:37;;;;;;;16.60;7.47;;;;;;;31.59;52.78;100812.81;1827567;78;21117;-64
2021/07/13 06:00:09;;;;;;;11.05;6.30;;;;;;;31.90;52.32;100810.23;1827576;78;21051;-64
2021/07/13 06:02:45;;;;;;;9.30;6.83;;;;;;;32.22;51.39;100813.39;1827645;78;21071;-64
2021/07/13 06:05:14;;;;;;;8.80;5.80;;;;;;;32.39;50.84;100815.27;1827416;78;21153;-64
2021/07/13 06:07:44;;;;;;;9.80;6.15;;;;;;;32.45;49.60;100817.20;1827464;78;21110;-64
2021/07/13 06:10:13;;;;;;;10.90;6.22;;;;;;;32.42;48.26;100817.59;1827478;78;21090;-64
2021/07/13 06:12:42;;;;;;;10.23;6.58;;;;;;;32.35;47.79;100815.35;1827718;78;21075;-64
2021/07/13 06:15:11;;;;;;;10.72;6.17;;;;;;;32.42;47.77;100816.23;1827637;78;21169;-64
2021/07/13 06:17:44;;;;;;;12.50;7.15;;;;;;;32.70;47.35;100817.03;1827490;78;21051;-64
2021/07/13 06:20:12;;;;;;;;;;;;;;;32.92;46.80;100819.59;1830207;78;21115;-64
2021/07/13 06:22:41;;;;;;;10.90;6.75;;;;;;;33.09;46.00;100817.34;1827450;78;20124;-64
2021/07/13 06:25:11;;;;;;;9.00;5.87;;;;;;;33.05;45.49;100819.65;1827477;78;21498;-64
2021/07/13 06:27:40;;;;;;;12.78;7.03;;;;;;;33.18;45.10;100818.88;1827484;78;21023;-64
2021/07/13 06:30:12;;;;;;;13.30;7.25;;;;;;;33.42;45.23;100828.34;1783865;80;21546;-66
2021/07/13 06:32:41;;;;;;;11.20;7.93;;;;;;;33.45;45.01;100826.54;1791683;79;21059;-64
2021/07/13 06:35:11;;;;;;;11.05;7.65;;;;;;;33.41;45.03;100824.45;1791463;80;21079;-64
2021/07/13 06:37:40;;;;;;;12.03;7.00;;;;;;;33.43;44.80;100827.27;1791498;79;21129;-64
2021/07/13 06:40:09;;;;;;;13.30;7.28;;;;;;;33.62;44.71;100820.67;1785825;79;21059;-64
2021/07/13 06:42:38;;;;;;;12.50;7.60;;;;;;;33.82;44.35;100826.98;1785257;80;21133;-65
2021/07/13 06:45:09;;;;;;;17.07;7.62;;;;;;;34.19;44.30;100819.17;1786102;80;21582;-64
2021/07/13 06:47:38;;;;;;;11.75;7.47;;;;;;;34.19;44.30;100819.17;1782362;80;21047;-64
2021/07/13 06:50:07;;;;;;;10.08;7.58;;;;;;;34.42;43.61;100830.17;1785303;80;21063;-64
2021/07/13 06:52:36;;;;;;;14.80;7.53;;;;;;;34.58;43.58;100816.02;1781849;80;21055;-64
2021/07/13 06:55:07;;;;;;;9.38;6.47;;;;;;;34.96;43.19;100820.68;1790853;80;21066;-64
2021/07/13 06:57:37;;;;;;;9.35;6.12;;;;;;;35.09;42.07;100821.67;1791357;79;21137;-64
2021/07/13 07:00:08;;;;;;;12.58;6.60;;;;;;;34.97;40.53;100802.36;1791373;79;21059;-64
2021/07/13 07:02:37;;;;;;;13.00;6.50;;;;;;;34.97;40.53;100802.36;1785118;79;21059;-64
2021/07/13 07:05:08;;;;;;;10.20;6.45;;;;;;;34.84;40.47;100810.11;1785942;80;21034;-64
2021/07/13 07:07:45;;;;;;;11.53;6.65;;;;;;;34.81;40.41;100807.84;1784676;79;21063;-65
2021/07/13 07:10:14;;;;;;;10.98;6.15;;;;;;;34.79;41.33;100814.06;1782426;80;21107;-63
2021/07/13 07:12:44;;;;;;;9.33;6.40;;;;;;;34.90;40.37;100812.53;1782096;80;21553;-63
2021/07/13 07:15:13;;;;;;;11.28;6.45;;;;;;;34.90;40.37;100812.53;1780482;80;21510;-63
2021/07/13 07:17:47;;;;;;;14.00;6.62;;;;;;;35.09;40.48;100814.83;1781007;80;21526;-63
2021/07/13 07:20:17;;;;;;;11.48;6.70;;;;;;;35.22;40.01;100805.19;1781562;80;21502;-64
2021/07/13 07:22:46;;;;;;;10.80;6.35;;;;;;;35.34;39.61;100813.00;1781450;80;21063;-63
2021/07/13 07:25:16;;;;;;;10.55;6.87;;;;;;;35.52;40.11;100803.98;1790144;80;21058;-63
2021/07/13 07:27:45;;;;;;;12.93;7.25;;;;;;;35.60;39.92;100811.11;1791588;80;21572;-63
2021/07/13 07:30:21;;;;;;;11.08;6.95;;;;;;;35.75;39.37;100800.67;1826093;78;21529;-63
2021/07/13 07:32:49;;;;;;;10.60;6.35;;;;;;;35.93;39.27;100804.48;1830024;78;21087;-64
2021/07/13 07:35:18;;;;;;;8.45;6.50;;;;;;;36.10;38.40;100802.84;1830135;78;21157;-63
2021/07/13 07:37:47;;;;;;;8.80;6.08;;;;;;;36.14;38.16;100808.16;1830100;78;21028;-63
2021/07/13 07:40:19;;;;;;;11.53;6.60;;;;;;;36.24;38.21;100810.94;1830222;78;21494;-63
2021/07/13 07:42:48;;;;;;;;;;;;;;;36.18;38.22;100807.21;1832849;78;21056;-63
2021/07/13 07:45:17;;;;;;;10.63;6.60;;;;;;;36.31;38.58;100804.84;1830076;78;20128;-64
2021/07/13 07:47:46;;;;;;;11.30;7.12;;;;;;;36.20;38.05;100805.62;1830152;78;21494;-63
2021/07/13 07:50:18;;;;;;;12.35;7.28;;;;;;;36.26;38.09;100804.69;1830280;78;21063;-63
2021/07/13 07:52:47;;;;;;;14.53;7.70;;;;;;;36.13;38.27;100802.40;1830370;78;21129;-63
2021/07/13 07:55:16;;;;;;;14.58;7.37;;;;;;;35.99;38.03;100802.77;1830185;78;21027;-63
2021/07/13 07:57:45;;;;;;;13.93;7.60;;;;;;;35.56;38.40;100835.36;1829980;78;21130;-64
2021/07/13 08:00:16;;;;;;;13.18;7.87;;;;;;;35.29;39.56;100790.92;1830158;78;21079;-63
2021/07/13 08:02:46;;;;;;;12.50;7.58;;;;;;;35.52;39.11;100799.05;1830308;78;21047;-62
2021/07/13 08:05:15;;;;;;;13.78;7.70;;;;;;;35.90;38.93;100795.38;1830157;78;21568;-62
2021/07/13 08:07:45;;;;;;;14.40;7.42;;;;;;;36.44;38.69;100792.34;1830148;78;21553;-62
2021/07/13 08:10:16;;;;;;;10.48;7.47;;;;;;;36.96;38.12;100796.53;1830028;78;21093;-63
2021/07/13 08:12:45;;;;;;;11.93;8.70;;;;;;;37.05;36.95;100797.88;1830229;78;21031;-61
2021/07/13 08:15:15;;;;;;;11.90;7.95;;;;;;;36.82;36.79;100792.62;1830147;78;21554;-62
2021/07/13 08:17:45;;;;;;;13.65;8.98;;;;;;;36.94;36.29;100794.02;1830146;78;21526;-62
2021/07/13 08:20:15;;;;;;;16.67;8.48;;;;;;;37.06;36.67;100802.30;1830248;78;21051;-62
2021/07/13 08:22:49;;;;;;;22.98;9.35;;;;;;;36.36;37.03;100798.70;1830055;78;21107;-63
2021/07/13 08:25:16;;;;;;;18.62;9.13;;;;;;;35.85;38.21;100789.73;1830763;77;21145;-62
2021/07/13 08:27:46;;;;;;;15.32;8.88;;;;;;;36.17;38.08;100792.33;1830231;78;21129;-62
2021/07/13 08:30:16;;;;;;;18.62;9.55;;;;;;;36.46;37.98;100795.69;1830153;78;21589;-62
2021/07/13 08:32:46;;;;;;;17.32;9.38;;;;;;;36.78;37.81;100796.05;1830119;78;21087;-62
2021/07/13 08:35:15;;;;;;;20.10;8.75;;;;;;;36.73;37.31;100794.02;1830048;78;21518;-62
2021/07/13 08:37:44;;;;;;;17.62;9.00;;;;;;;36.88;37.33;100797.16;1830319;78;21620;-61
2021/07/13 08:40:13;;;;;;;18.00;9.58;;;;;;;37.03;36.85;100807.70;1830137;78;21179;-62
2021/07/13 08:42:44;;;;;;;12.37;8.15;;;;;;;37.28;37.85;100791.10;1830249;78;21055;-62
2021/07/13 08:45:15;;;;;;;13.05;7.15;;;;;;;37.28;37.08;100795.22;1830238;78;21055;-62
2021/07/13 08:47:49;;;;;;;13.55;7.87;;;;;;;37.14;36.26;100788.23;1830146;78;21561;-62
2021/07/13 08:50:21;;;;;;;11.70;8.18;;;;;;;36.99;36.16;100789.22;1830245;78;21071;-62
2021/07/13 08:52:50;;;;;;;12.43;8.05;;;;;;;37.04;36.61;100790.73;1830157;78;21044;-61
2021/07/13 08:55:19;;;;;;;11.48;7.67;;;;;;;36.91;36.88;100783.53;1830347;78;21111;-62
2021/07/13 08:57:48;;;;;;;15.20;8.23;;;;;;;37.03;36.64;100790.41;1830107;78;21083;-61
2021/07/13 09:00:19;;;;;;;15.60;8.23;;;;;;;37.17;36.89;100787.80;1830228;78;21502;-62
2021/07/13 09:03:11;;;;;;;11.08;7.47;;;;;;;37.47;37.20;100786.89;1830230;78;21051;-61
2021/07/13 09:05:52;;;;;;;;;;;;;;;37.79;36.54;100784.64;1832882;78;21055;-61
2021/07/13 09:08:29;;;;;;;13.03;7.15;;;;;;;37.84;36.13;100783.94;1830143;78;20151;-61
2021/07/13 09:11:17;;;;;;;14.20;7.67;;;;;;;37.63;36.61;100787.59;1830211;78;21090;-62
2021/07/13 09:13:48;;;;;;;9.98;7.20;;;;;;;37.95;36.73;100783.08;1830222;78;21031;-61
2021/07/13 09:16:19;;;;;;;10.48;7.37;;;;;;;37.80;36.02;100785.50;1830137;78;21137;-62
2021/07/13 09:18:54;;;;;;;14.28;7.05;;;;;;;37.60;36.19;100786.65;1830220;78;21121;-62
2021/07/13 09:21:32;;;;;;;13.40;7.33;;;;;;;37.44;36.25;100790.09;1830113;78;21129;-61
2021/07/13 09:24:07;;;;;;;12.85;7.20;;;;;;;37.29;36.45;100782.32;1830523;76;21055;-62
2021/07/13 09:26:53;;;;;;;11.60;7.33;;;;;;;37.38;36.34;100789.14;1830150;78;21102;-62
2021/07/13 09:29:34;;;;;;;15.20;8.60;;;;;;;37.32;36.53;100788.72;1829232;78;21098;-62
2021/07/13 09:32:28;;;;;;;15.93;7.50;;;;;;;37.28;36.83;100778.75;1830195;78;21145;-62
2021/07/13 09:35:06;;;;;;;14.25;7.72;;;;;;;37.01;36.51;100785.16;1830105;78;21167;-62
2021/07/13 09:37:39;;;;;;;20.48;7.83;;;;;;;36.88;37.31;100783.45;1830173;78;21075;-61
2021/07/13 09:40:16;;;;;;;12.88;7.78;;;;;;;37.03;36.98;100783.55;1830004;78;21102;-62
2021/07/13 09:42:50;;;;;;;12.05;7.55;;;;;;;37.41;36.95;100777.69;1830114;78;21095;-62
2021/07/13 09:45:30;;;;;;;10.48;7.45;;;;;;;37.75;36.07;100777.95;1830099;78;21051;-62
2021/07/13 09:48:01;;;;;;;18.23;8.75;;;;;;;37.77;35.71;100779.92;1830145;76;21083;-62
2021/07/13 09:50:35;;;;;;;12.25;7.55;;;;;;;37.52;36.00;100780.66;1830172;78;21047;-62
2021/07/13 09:53:06;;;;;;;14.63;7.47;;;;;;;37.49;35.67;100781.98;1830098;78;21149;-62
2021/07/13 09:55:35;;;;;;;19.62;7.47;;;;;;;37.57;35.74;100776.16;1830189;78;21113;-62
2021/07/13 09:58:15;;;;;;;11.95;6.87;;;;;;;37.76;35.56;100776.06;1830054;78;21675;-62
2021/07/13 10:00:46;;;;;;;11.03;7.22;;;;;;;37.70;34.98;100778.38;1829987;78;21055;-61
2021/07/13 10:03:17;;;;;;;10.53;6.58;;;;;;;37.04;35.62;100775.64;1830088;78;21107;-61
2021/07/13 10:05:48;;;;;;;13.35;7.05;;;;;;;36.54;36.50;100772.63;1830258;78;21145;-62
2021/07/13 10:08:18;;;;;;;14.78;7.53;;;;;;;36.29;36.87;100768.61;1830132;78;21019;-62
2021/07/13 10:10:49;;;;;;;13.10;7.95;;;;;;;35.78;37.15;100771.15;1830061;78;21580;-62
2021/07/13 10:13:19;;;;;;;14.93;9.30;;;;;;;35.35;37.67;100776.34;1830280;78;21079;-63
2021/07/13 10:15:50;;;;;;;14.43;7.92;;;;;;;34.97;38.35;100780.48;1830072;78;21121;-62
2021/07/13 10:18:19;;;;;;;13.93;8.40;;;;;;;34.80;38.88;100781.53;1830201;78;21039;-62
2021/07/13 10:20:50;;;;;;;13.25;8.63;;;;;;;34.72;40.25;100781.80;1834719;78;21023;-62
2021/07/13 10:23:21;;;;;;;13.80;8.13;;;;;;;34.65;40.27;100784.53;1830158;78;21051;-62
2021/07/13 10:25:50;;;;;;;10.18;7.95;;;;;;;34.63;39.96;100785.81;1830261;78;21124;-62
2021/07/13 10:28:24;;;;;;;15.90;7.75;;;;;;;34.45;39.96;100787.35;1830044;78;21110;-62
2021/07/13 10:30:56;;;;;;;12.73;7.97;;;;;;;34.44;40.63;100792.52;1831184;76;21099;-62
2021/07/13 10:33:32;;;;;;;9.33;7.62;;;;;;;34.45;40.53;100789.25;1827457;78;21083;-62
2021/07/13 10:36:29;;;;;;;13.08;7.60;;;;;;;34.41;40.75;100788.84;1827436;78;21048;-62
2021/07/13 10:39:30;;;;;;;12.43;8.10;;;;;;;34.42;40.74;100783.70;1820834;78;21138;-61
2021/07/13 10:42:01;;;;;;;12.33;8.40;;;;;;;34.36;40.31;100785.91;1827704;78;21138;-62
2021/07/13 10:44:49;;;;;;;12.85;8.03;;;;;;;34.46;41.26;100772.64;1827360;78;21048;-63
2021/07/13 10:47:35;;;;;;;20.40;8.68;;;;;;;34.60;40.67;100771.53;1827582;78;21051;-62
2021/07/13 10:50:20;;;;;;;18.30;8.83;;;;;;;34.59;40.51;100773.94;1827347;77;21059;-62
2021/07/13 10:53:25;;;;;;;17.32;8.83;;;;;;;34.63;40.58;100772.14;1827487;78;21051;-62
2021/07/13 10:56:11;;;;;;;16.48;8.88;;;;;;;34.76;40.18;100770.19;1827543;78;21145;-61
2021/07/13 10:58:48;;;;;;;16.65;8.53;;;;;;;34.76;40.18;100770.19;1827524;78;21516;-62
2021/07/13 11:01:28;;;;;;;15.70;8.10;;;;;;;34.82;40.44;100760.27;1827581;78;21052;-62
2021/07/13 11:03:59;;;;;;;11.55;8.13;;;;;;;34.80;40.36;100767.86;1827606;78;21138;-62
2021/07/13 11:06:46;;;;;;;13.13;7.75;;;;;;;34.55;40.93;100760.40;1827601;78;21063;-62
2021/07/13 11:09:20;;;;;;;14.75;8.43;;;;;;;34.55;40.95;100756.30;1827793;77;21127;-62
2021/07/13 11:11:50;;;;;;;19.12;8.98;;;;;;;34.78;40.75;100756.30;1827478;78;21498;-62
2021/07/13 11:14:21;;;;;;;17.90;7.72;;;;;;;34.82;40.72;100761.64;1827522;78;21597;-62
2021/07/13 11:17:08;;;;;;;18.52;7.90;;;;;;;34.96;40.15;100760.50;1845072;77;21118;-59
2021/07/13 11:19:37;;;;;;;14.40;7.15;;;;;;;35.05;40.33;100764.35;1849883;77;21050;-59
2021/07/13 11:22:06;;;;;;;11.33;6.50;;;;;;;35.11;38.91;100763.45;1849956;77;21062;-62
2021/07/13 11:24:36;;;;;;;12.75;6.33;;;;;;;35.03;38.39;100762.34;1849053;77;21128;-62
2021/07/13 11:27:05;;;;;;;12.33;6.30;;;;;;;34.99;38.78;100753.23;1849938;77;21116;-62
2021/07/13 11:29:33;;;;;;;8.68;5.80;;;;;;;35.07;38.51;100762.23;1836035;77;21070;-62
2021/07/13 11:32:05;;;;;;;14.30;7.25;;;;;;;34.93;38.54;100760.93;1849926;77;21144;-62
2021/07/13 11:34:40;;;;;;;19.27;6.87;;;;;;;34.61;38.31;100763.62;1850122;77;21128;-63
2021/07/13 11:37:09;;;;;;;10.43;6.08;;;;;;;34.46;38.88;100765.80;1850037;77;21124;-62